sensor_id;sensor_type;location;lat;lon;timestamp;P1;durP1;ratioP1;P2;durP2;ratioP2
9948;SDS011;5013;51.840;8.276;2023-06-14T00:00:10;3.20;;;3.00;;
9948;SDS011;5013;51.840;8.276;2023-06-14T00:02:38;4.20;;;2.87;;
9948;SDS011;5013;51.840;8.276;2023-06-14T00:05:04;3.20;;;3.00;;
9948;SDS011;5013;51.840;8.276;2023-06-14T00:07:41;4.60;;;3.10;;
9948;SDS011;5013;51.840;8.276;2023-06-14T00:10:13;4.83;;;3.03;;
9948;SDS011;5013;51.840;8.276;2023-06-14T00:12:40;4.07;;;3.07;;
9948;SDS011;5013;51.840;8.276;2023-06-14T00:15:06;3.67;;;3.37;;
9948;SDS011;5013;51.840;8.276;2023-06-14T00:17:34;3.93;;;2.97;;
9948;SDS011;5013;51.840;8.276;2023-06-14T00:20:01;4.37;;;3.20;;
9948;SDS011;5013;51.840;8.276;2023-06-14T00:22:31;4.90;;;3.37;;
9948;SDS011;5013;51.840;8.276;2023-06-14T00:24:58;4.03;;;3.30;;
9948;SDS011;5013;51.840;8.276;2023-06-14T00:27:23;7.00;;;3.20;;
9948;SDS011;5013;51.840;8.276;2023-06-14T00:29:49;4.73;;;3.20;;
9948;SDS011;5013;51.840;8.276;2023-06-14T00:32:15;4.60;;;3.23;;
9948;SDS011;5013;51.840;8.276;2023-06-14T00:34:41;4.40;;;3.53;;
9948;SDS011;5013;51.840;8.276;2023-06-14T00:37:06;4.60;;;3.27;;
9948;SDS011;5013;51.840;8.276;2023-06-14T00:39:32;5.23;;;3.57;;
9948;SDS011;5013;51.840;8.276;2023-06-14T00:41:57;4.10;;;2.90;;
9948;SDS011;5013;51.840;8.276;2023-06-14T00:44:24;5.63;;;3.47;;
9948;SDS011;5013;51.840;8.276;2023-06-14T00:46:49;5.07;;;3.37;;
9948;SDS011;5013;51.840;8.276;2023-06-14T00:49:15;8.13;;;3.40;;
9948;SDS011;5013;51.840;8.276;2023-06-14T00:51:42;3.47;;;3.20;;
9948;SDS011;5013;51.840;8.276;2023-06-14T00:54:08;5.33;;;3.20;;
9948;SDS011;5013;51.840;8.276;2023-06-14T00:56:37;4.57;;;3.17;;
9948;SDS011;5013;51.840;8.276;2023-06-14T00:59:03;6.40;;;3.40;;
9948;SDS011;5013;51.840;8.276;2023-06-14T01:01:29;4.93;;;3.83;;
9948;SDS011;5013;51.840;8.276;2023-06-14T01:04:00;4.30;;;3.30;;
9948;SDS011;5013;51.840;8.276;2023-06-14T01:06:48;4.53;;;3.27;;
9948;SDS011;5013;51.840;8.276;2023-06-14T01:15:15;3.57;;;2.93;;
9948;SDS011;5013;51.840;8.276;2023-06-14T01:17:41;3.73;;;3.07;;
9948;SDS011;5013;51.840;8.276;2023-06-14T01:20:10;5.60;;;3.07;;
9948;SDS011;5013;51.840;8.276;2023-06-14T01:22:52;3.30;;;2.97;;
9948;SDS011;5013;51.840;8.276;2023-06-14T01:25:22;6.17;;;3.47;;
9948;SDS011;5013;51.840;8.276;2023-06-14T01:27:48;5.63;;;3.70;;
9948;SDS011;5013;51.840;8.276;2023-06-14T01:30:23;3.33;;;3.10;;
9948;SDS011;5013;51.840;8.276;2023-06-14T01:32:53;5.77;;;3.17;;
9948;SDS011;5013;51.840;8.276;2023-06-14T01:35:19;3.80;;;3.37;;
9948;SDS011;5013;51.840;8.276;2023-06-14T01:37:47;5.87;;;3.47;;
9948;SDS011;5013;51.840;8.276;2023-06-14T01:40:13;4.33;;;3.17;;
9948;SDS011;5013;51.840;8.276;2023-06-14T01:42:40;4.47;;;3.20;;
9948;SDS011;5013;51.840;8.276;2023-06-14T01:45:07;3.70;;;3.33;;
9948;SDS011;5013;51.840;8.276;2023-06-14T01:47:35;3.80;;;3.27;;
9948;SDS011;5013;51.840;8.276;2023-06-14T01:50:01;3.77;;;3.47;;
9948;SDS011;5013;51.840;8.276;2023-06-14T01:52:31;3.80;;;3.37;;
9948;SDS011;5013;51.840;8.276;2023-06-14T01:54:56;6.07;;;3.47;;
9948;SDS011;5013;51.840;8.276;2023-06-14T01:57:23;4.10;;;3.70;;
9948;SDS011;5013;51.840;8.276;2023-06-14T01:59:50;7.10;;;3.30;;
9948;SDS011;5013;51.840;8.276;2023-06-14T02:02:15;5.73;;;3.57;;
9948;SDS011;5013;51.840;8.276;2023-06-14T02:04:41;4.67;;;3.13;;
9948;SDS011;5013;51.840;8.276;2023-06-14T02:07:12;4.40;;;3.70;;
9948;SDS011;5013;51.840;8.276;2023-06-14T02:09:41;3.47;;;3.27;;
9948;SDS011;5013;51.840;8.276;2023-06-14T02:12:10;5.33;;;3.93;;
9948;SDS011;5013;51.840;8.276;2023-06-14T02:14:36;5.90;;;3.23;;
9948;SDS011;5013;51.840;8.276;2023-06-14T02:17:01;5.67;;;3.03;;
9948;SDS011;5013;51.840;8.276;2023-06-14T02:19:30;4.07;;;3.70;;
9948;SDS011;5013;51.840;8.276;2023-06-14T02:21:58;4.10;;;3.77;;
9948;SDS011;5013;51.840;8.276;2023-06-14T02:24:36;8.20;;;3.30;;
9948;SDS011;5013;51.840;8.276;2023-06-14T02:27:01;5.13;;;3.30;;
9948;SDS011;5013;51.840;8.276;2023-06-14T02:29:28;7.43;;;3.40;;
9948;SDS011;5013;51.840;8.276;2023-06-14T02:31:54;4.40;;;3.10;;
9948;SDS011;5013;51.840;8.276;2023-06-14T02:34:19;4.27;;;3.10;;
9948;SDS011;5013;51.840;8.276;2023-06-14T02:36:46;9.77;;;3.37;;
9948;SDS011;5013;51.840;8.276;2023-06-14T02:39:13;3.30;;;3.00;;
9948;SDS011;5013;51.840;8.276;2023-06-14T02:41:39;3.60;;;3.30;;
9948;SDS011;5013;51.840;8.276;2023-06-14T02:44:05;5.63;;;3.80;;
9948;SDS011;5013;51.840;8.276;2023-06-14T02:46:31;3.30;;;3.03;;
9948;SDS011;5013;51.840;8.276;2023-06-14T02:48:56;6.50;;;3.27;;
9948;SDS011;5013;51.840;8.276;2023-06-14T02:51:22;4.77;;;3.63;;
9948;SDS011;5013;51.840;8.276;2023-06-14T02:53:48;3.87;;;3.47;;
9948;SDS011;5013;51.840;8.276;2023-06-14T02:56:13;4.33;;;3.73;;
9948;SDS011;5013;51.840;8.276;2023-06-14T02:58:39;3.60;;;3.30;;
9948;SDS011;5013;51.840;8.276;2023-06-14T03:01:05;4.23;;;3.40;;
9948;SDS011;5013;51.840;8.276;2023-06-14T03:03:32;4.10;;;3.37;;
9948;SDS011;5013;51.840;8.276;2023-06-14T03:05:58;4.17;;;3.70;;
9948;SDS011;5013;51.840;8.276;2023-06-14T03:08:29;6.00;;;3.20;;
9948;SDS011;5013;51.840;8.276;2023-06-14T03:10:56;3.77;;;3.43;;
9948;SDS011;5013;51.840;8.276;2023-06-14T03:13:22;4.30;;;3.40;;
9948;SDS011;5013;51.840;8.276;2023-06-14T03:15:48;4.33;;;3.10;;
9948;SDS011;5013;51.840;8.276;2023-06-14T03:18:17;4.10;;;3.03;;
9948;SDS011;5013;51.840;8.276;2023-06-14T03:20:42;4.07;;;3.20;;
9948;SDS011;5013;51.840;8.276;2023-06-14T03:23:10;3.50;;;3.20;;
9948;SDS011;5013;51.840;8.276;2023-06-14T03:25:36;3.60;;;3.30;;
9948;SDS011;5013;51.840;8.276;2023-06-14T03:28:03;12.13;;;3.60;;
9948;SDS011;5013;51.840;8.276;2023-06-14T03:30:30;6.10;;;3.10;;
9948;SDS011;5013;51.840;8.276;2023-06-14T03:32:56;3.63;;;3.23;;
9948;SDS011;5013;51.840;8.276;2023-06-14T03:35:22;4.87;;;3.63;;
9948;SDS011;5013;51.840;8.276;2023-06-14T03:37:48;5.67;;;3.63;;
9948;SDS011;5013;51.840;8.276;2023-06-14T03:40:15;7.60;;;3.40;;
9948;SDS011;5013;51.840;8.276;2023-06-14T03:42:43;3.80;;;3.33;;
9948;SDS011;5013;51.840;8.276;2023-06-14T03:45:08;3.23;;;2.83;;
9948;SDS011;5013;51.840;8.276;2023-06-14T03:47:34;4.93;;;3.07;;
9948;SDS011;5013;51.840;8.276;2023-06-14T03:50:03;9.13;;;3.07;;
9948;SDS011;5013;51.840;8.276;2023-06-14T03:52:30;3.60;;;3.07;;
9948;SDS011;5013;51.840;8.276;2023-06-14T03:54:56;5.23;;;3.30;;
9948;SDS011;5013;51.840;8.276;2023-06-14T03:57:22;7.13;;;3.30;;
9948;SDS011;5013;51.840;8.276;2023-06-14T03:59:48;3.93;;;3.00;;
9948;SDS011;5013;51.840;8.276;2023-06-14T04:02:14;5.00;;;3.43;;
9948;SDS011;5013;51.840;8.276;2023-06-14T04:04:40;7.23;;;3.10;;
9948;SDS011;5013;51.840;8.276;2023-06-14T04:07:09;3.10;;;2.80;;
9948;SDS011;5013;51.840;8.276;2023-06-14T04:09:36;6.93;;;3.20;;
9948;SDS011;5013;51.840;8.276;2023-06-14T04:12:02;3.10;;;2.80;;
9948;SDS011;5013;51.840;8.276;2023-06-14T04:14:29;5.83;;;3.00;;
9948;SDS011;5013;51.840;8.276;2023-06-14T04:16:55;4.93;;;3.07;;
9948;SDS011;5013;51.840;8.276;2023-06-14T04:19:21;3.37;;;3.07;;
9948;SDS011;5013;51.840;8.276;2023-06-14T04:21:47;3.10;;;2.80;;
9948;SDS011;5013;51.840;8.276;2023-06-14T04:24:12;3.60;;;2.77;;
9948;SDS011;5013;51.840;8.276;2023-06-14T04:26:39;4.33;;;2.90;;
9948;SDS011;5013;51.840;8.276;2023-06-14T04:29:05;3.20;;;2.50;;
9948;SDS011;5013;51.840;8.276;2023-06-14T04:31:31;6.30;;;3.27;;
9948;SDS011;5013;51.840;8.276;2023-06-14T04:34:05;2.97;;;2.77;;
9948;SDS011;5013;51.840;8.276;2023-06-14T04:36:32;5.77;;;3.20;;
9948;SDS011;5013;51.840;8.276;2023-06-14T04:38:59;5.60;;;3.27;;
9948;SDS011;5013;51.840;8.276;2023-06-14T04:41:26;4.23;;;2.90;;
9948;SDS011;5013;51.840;8.276;2023-06-14T04:43:55;4.60;;;2.83;;
9948;SDS011;5013;51.840;8.276;2023-06-14T04:46:26;3.33;;;3.03;;
9948;SDS011;5013;51.840;8.276;2023-06-14T04:48:55;3.37;;;3.03;;
9948;SDS011;5013;51.840;8.276;2023-06-14T04:51:21;3.47;;;3.10;;
9948;SDS011;5013;51.840;8.276;2023-06-14T04:53:54;3.10;;;2.90;;
9948;SDS011;5013;51.840;8.276;2023-06-14T04:56:21;6.03;;;2.90;;
9948;SDS011;5013;51.840;8.276;2023-06-14T04:58:48;5.50;;;3.10;;
9948;SDS011;5013;51.840;8.276;2023-06-14T05:01:13;3.10;;;2.87;;
9948;SDS011;5013;51.840;8.276;2023-06-14T05:03:39;7.37;;;3.10;;
9948;SDS011;5013;51.840;8.276;2023-06-14T05:06:06;6.53;;;2.60;;
9948;SDS011;5013;51.840;8.276;2023-06-14T05:08:31;4.73;;;3.10;;
9948;SDS011;5013;51.840;8.276;2023-06-14T05:10:57;4.57;;;3.00;;
9948;SDS011;5013;51.840;8.276;2023-06-14T05:13:23;3.50;;;3.20;;
9948;SDS011;5013;51.840;8.276;2023-06-14T05:15:49;2.97;;;2.63;;
9948;SDS011;5013;51.840;8.276;2023-06-14T05:18:14;3.30;;;3.03;;
9948;SDS011;5013;51.840;8.276;2023-06-14T05:20:40;3.37;;;3.07;;
9948;SDS011;5013;51.840;8.276;2023-06-14T05:23:07;7.33;;;2.97;;
9948;SDS011;5013;51.840;8.276;2023-06-14T05:25:32;3.00;;;2.80;;
9948;SDS011;5013;51.840;8.276;2023-06-14T05:27:58;4.87;;;2.80;;
9948;SDS011;5013;51.840;8.276;2023-06-14T05:30:23;4.70;;;2.87;;
9948;SDS011;5013;51.840;8.276;2023-06-14T05:32:49;4.30;;;2.97;;
9948;SDS011;5013;51.840;8.276;2023-06-14T05:35:15;7.93;;;3.00;;
9948;SDS011;5013;51.840;8.276;2023-06-14T05:37:41;8.73;;;2.73;;
9948;SDS011;5013;51.840;8.276;2023-06-14T05:40:06;4.83;;;2.87;;
9948;SDS011;5013;51.840;8.276;2023-06-14T05:42:33;2.60;;;2.40;;
9948;SDS011;5013;51.840;8.276;2023-06-14T05:44:59;5.15;;;2.78;;
9948;SDS011;5013;51.840;8.276;2023-06-14T05:47:25;4.05;;;2.75;;
9948;SDS011;5013;51.840;8.276;2023-06-14T05:49:52;2.70;;;2.40;;
9948;SDS011;5013;51.840;8.276;2023-06-14T05:52:18;2.58;;;2.38;;
9948;SDS011;5013;51.840;8.276;2023-06-14T05:54:43;2.72;;;2.53;;
9948;SDS011;5013;51.840;8.276;2023-06-14T05:57:10;2.40;;;2.30;;
9948;SDS011;5013;51.840;8.276;2023-06-14T05:59:36;3.37;;;2.60;;
9948;SDS011;5013;51.840;8.276;2023-06-14T06:02:01;4.40;;;2.50;;
9948;SDS011;5013;51.840;8.276;2023-06-14T06:04:27;2.40;;;2.20;;
9948;SDS011;5013;51.840;8.276;2023-06-14T06:06:52;2.20;;;2.10;;
9948;SDS011;5013;51.840;8.276;2023-06-14T06:09:18;6.03;;;2.60;;
9948;SDS011;5013;51.840;8.276;2023-06-14T06:11:44;3.07;;;2.30;;
9948;SDS011;5013;51.840;8.276;2023-06-14T06:14:09;6.53;;;2.40;;
9948;SDS011;5013;51.840;8.276;2023-06-14T06:16:35;2.20;;;2.07;;
9948;SDS011;5013;51.840;8.276;2023-06-14T06:19:00;4.83;;;2.10;;
9948;SDS011;5013;51.840;8.276;2023-06-14T06:21:26;4.73;;;2.17;;
9948;SDS011;5013;51.840;8.276;2023-06-14T06:23:51;4.07;;;2.30;;
9948;SDS011;5013;51.840;8.276;2023-06-14T06:26:17;2.40;;;2.22;;
9948;SDS011;5013;51.840;8.276;2023-06-14T06:28:42;5.03;;;1.93;;
9948;SDS011;5013;51.840;8.276;2023-06-14T06:31:08;3.07;;;2.10;;
9948;SDS011;5013;51.840;8.276;2023-06-14T06:33:34;3.40;;;1.77;;
9948;SDS011;5013;51.840;8.276;2023-06-14T06:36:00;2.33;;;1.92;;
9948;SDS011;5013;51.840;8.276;2023-06-14T06:38:26;2.07;;;1.97;;
9948;SDS011;5013;51.840;8.276;2023-06-14T06:40:51;5.47;;;2.00;;
9948;SDS011;5013;51.840;8.276;2023-06-14T06:43:19;9.10;;;2.30;;
9948;SDS011;5013;51.840;8.276;2023-06-14T06:45:44;2.93;;;2.10;;
9948;SDS011;5013;51.840;8.276;2023-06-14T06:48:10;3.08;;;1.70;;
9948;SDS011;5013;51.840;8.276;2023-06-14T06:50:36;11.27;;;1.93;;
9948;SDS011;5013;51.840;8.276;2023-06-14T06:53:01;1.70;;;1.60;;
9948;SDS011;5013;51.840;8.276;2023-06-14T06:55:27;5.70;;;1.90;;
9948;SDS011;5013;51.840;8.276;2023-06-14T06:57:53;1.27;;;1.23;;
9948;SDS011;5013;51.840;8.276;2023-06-14T07:00:19;1.85;;;1.75;;
9948;SDS011;5013;51.840;8.276;2023-06-14T07:02:45;2.13;;;1.40;;
9948;SDS011;5013;51.840;8.276;2023-06-14T07:05:11;1.83;;;1.53;;
9948;SDS011;5013;51.840;8.276;2023-06-14T07:07:36;1.98;;;1.38;;
9948;SDS011;5013;51.840;8.276;2023-06-14T07:10:03;2.87;;;1.63;;
9948;SDS011;5013;51.840;8.276;2023-06-14T07:12:30;1.60;;;1.50;;
9948;SDS011;5013;51.840;8.276;2023-06-14T07:14:58;1.40;;;1.30;;
9948;SDS011;5013;51.840;8.276;2023-06-14T07:17:24;3.03;;;1.38;;
9948;SDS011;5013;51.840;8.276;2023-06-14T07:19:50;1.60;;;1.50;;
9948;SDS011;5013;51.840;8.276;2023-06-14T07:22:16;1.60;;;1.33;;
9948;SDS011;5013;51.840;8.276;2023-06-14T07:24:42;1.52;;;1.42;;
9948;SDS011;5013;51.840;8.276;2023-06-14T07:27:08;1.20;;;1.20;;
9948;SDS011;5013;51.840;8.276;2023-06-14T07:29:33;2.97;;;1.30;;
9948;SDS011;5013;51.840;8.276;2023-06-14T07:31:59;1.50;;;1.40;;
9948;SDS011;5013;51.840;8.276;2023-06-14T07:34:25;1.40;;;1.30;;
9948;SDS011;5013;51.840;8.276;2023-06-14T07:36:51;2.53;;;1.50;;
9948;SDS011;5013;51.840;8.276;2023-06-14T07:39:16;1.40;;;1.40;;
9948;SDS011;5013;51.840;8.276;2023-06-14T07:41:42;2.05;;;1.50;;
9948;SDS011;5013;51.840;8.276;2023-06-14T07:44:07;2.43;;;1.30;;
9948;SDS011;5013;51.840;8.276;2023-06-14T07:46:33;1.50;;;1.40;;
9948;SDS011;5013;51.840;8.276;2023-06-14T07:48:59;3.28;;;1.52;;
9948;SDS011;5013;51.840;8.276;2023-06-14T07:51:25;3.47;;;1.20;;
9948;SDS011;5013;51.840;8.276;2023-06-14T07:53:51;4.32;;;1.50;;
9948;SDS011;5013;51.840;8.276;2023-06-14T07:56:16;1.77;;;1.67;;
9948;SDS011;5013;51.840;8.276;2023-06-14T07:58:42;1.70;;;1.60;;
9948;SDS011;5013;51.840;8.276;2023-06-14T08:01:08;5.03;;;1.75;;
9948;SDS011;5013;51.840;8.276;2023-06-14T08:03:34;3.40;;;1.80;;
9948;SDS011;5013;51.840;8.276;2023-06-14T08:05:59;4.05;;;1.58;;
9948;SDS011;5013;51.840;8.276;2023-06-14T08:08:26;12.70;;;2.43;;
9948;SDS011;5013;51.840;8.276;2023-06-14T08:10:51;4.20;;;1.60;;
9948;SDS011;5013;51.840;8.276;2023-06-14T08:13:17;1.63;;;1.52;;
9948;SDS011;5013;51.840;8.276;2023-06-14T08:15:43;1.65;;;1.35;;
9948;SDS011;5013;51.840;8.276;2023-06-14T08:18:09;3.08;;;1.67;;
9948;SDS011;5013;51.840;8.276;2023-06-14T08:20:34;1.85;;;1.60;;
9948;SDS011;5013;51.840;8.276;2023-06-14T08:23:01;3.10;;;1.40;;
9948;SDS011;5013;51.840;8.276;2023-06-14T08:25:29;7.53;;;1.48;;
9948;SDS011;5013;51.840;8.276;2023-06-14T08:27:55;2.20;;;1.70;;
9948;SDS011;5013;51.840;8.276;2023-06-14T08:30:20;2.15;;;1.90;;
9948;SDS011;5013;51.840;8.276;2023-06-14T08:32:46;2.55;;;1.70;;
9948;SDS011;5013;51.840;8.276;2023-06-14T08:35:12;1.63;;;1.52;;
9948;SDS011;5013;51.840;8.276;2023-06-14T08:37:41;1.58;;;1.50;;
9948;SDS011;5013;51.840;8.276;2023-06-14T08:40:12;2.53;;;1.20;;
9948;SDS011;5013;51.840;8.276;2023-06-14T08:42:47;2.97;;;1.30;;
9948;SDS011;5013;51.840;8.276;2023-06-14T08:45:16;2.75;;;1.40;;
9948;SDS011;5013;51.840;8.276;2023-06-14T08:47:42;10.57;;;1.88;;
9948;SDS011;5013;51.840;8.276;2023-06-14T08:50:10;1.92;;;1.83;;
9948;SDS011;5013;51.840;8.276;2023-06-14T08:52:37;2.10;;;1.85;;
9948;SDS011;5013;51.840;8.276;2023-06-14T08:55:10;1.60;;;1.40;;
9948;SDS011;5013;51.840;8.276;2023-06-14T08:57:36;1.30;;;1.20;;
9948;SDS011;5013;51.840;8.276;2023-06-14T09:00:03;1.50;;;1.40;;
9948;SDS011;5013;51.840;8.276;2023-06-14T09:02:37;5.97;;;1.60;;
9948;SDS011;5013;51.840;8.276;2023-06-14T09:05:03;1.77;;;1.63;;
9948;SDS011;5013;51.840;8.276;2023-06-14T09:07:28;2.10;;;1.70;;
9948;SDS011;5013;51.840;8.276;2023-06-14T09:10:10;2.53;;;1.67;;
9948;SDS011;5013;51.840;8.276;2023-06-14T09:12:37;1.75;;;1.65;;
9948;SDS011;5013;51.840;8.276;2023-06-14T09:15:04;1.40;;;1.40;;
9948;SDS011;5013;51.840;8.276;2023-06-14T09:17:33;1.83;;;1.63;;
9948;SDS011;5013;51.840;8.276;2023-06-14T09:20:00;1.73;;;1.63;;
9948;SDS011;5013;51.840;8.276;2023-06-14T09:22:30;3.60;;;1.80;;
9948;SDS011;5013;51.840;8.276;2023-06-14T09:24:55;2.20;;;1.80;;
9948;SDS011;5013;51.840;8.276;2023-06-14T09:27:21;2.13;;;1.70;;
9948;SDS011;5013;51.840;8.276;2023-06-14T09:29:46;5.53;;;1.80;;
9948;SDS011;5013;51.840;8.276;2023-06-14T09:32:12;1.50;;;1.50;;
9948;SDS011;5013;51.840;8.276;2023-06-14T09:34:38;4.63;;;2.10;;
9948;SDS011;5013;51.840;8.276;2023-06-14T09:37:03;3.88;;;1.73;;
9948;SDS011;5013;51.840;8.276;2023-06-14T09:39:29;2.63;;;1.80;;
9948;SDS011;5013;51.840;8.276;2023-06-14T09:41:55;2.15;;;1.70;;
9948;SDS011;5013;51.840;8.276;2023-06-14T09:44:20;1.63;;;1.50;;
9948;SDS011;5013;51.840;8.276;2023-06-14T09:46:50;1.50;;;1.42;;
9948;SDS011;5013;51.840;8.276;2023-06-14T09:49:16;1.98;;;1.88;;
9948;SDS011;5013;51.840;8.276;2023-06-14T09:51:42;1.98;;;1.88;;
9948;SDS011;5013;51.840;8.276;2023-06-14T09:54:12;2.03;;;1.77;;
9948;SDS011;5013;51.840;8.276;2023-06-14T09:56:41;3.05;;;2.60;;
9948;SDS011;5013;51.840;8.276;2023-06-14T09:59:12;5.28;;;2.05;;
9948;SDS011;5013;51.840;8.276;2023-06-14T10:01:41;4.90;;;2.30;;
9948;SDS011;5013;51.840;8.276;2023-06-14T10:04:08;2.97;;;2.00;;
9948;SDS011;5013;51.840;8.276;2023-06-14T10:06:40;1.83;;;1.77;;
9948;SDS011;5013;51.840;8.276;2023-06-14T10:09:10;2.55;;;2.28;;
9948;SDS011;5013;51.840;8.276;2023-06-14T10:11:36;2.38;;;2.20;;
9948;SDS011;5013;51.840;8.276;2023-06-14T10:14:08;11.07;;;2.58;;
9948;SDS011;5013;51.840;8.276;2023-06-14T10:16:45;2.22;;;2.20;;
9948;SDS011;5013;51.840;8.276;2023-06-14T10:19:21;10.65;;;2.53;;
9948;SDS011;5013;51.840;8.276;2023-06-14T10:21:58;2.28;;;2.17;;
9948;SDS011;5013;51.840;8.276;2023-06-14T10:24:32;3.65;;;2.58;;
9948;SDS011;5013;51.840;8.276;2023-06-14T10:27:08;2.83;;;2.38;;
9948;SDS011;5013;51.840;8.276;2023-06-14T10:32:17;2.30;;;2.20;;
9948;SDS011;5013;51.840;8.276;2023-06-14T10:34:44;4.45;;;2.38;;
9948;SDS011;5013;51.840;8.276;2023-06-14T10:37:13;2.60;;;2.40;;
9948;SDS011;5013;51.840;8.276;2023-06-14T10:39:40;4.00;;;2.22;;
9948;SDS011;5013;51.840;8.276;2023-06-14T10:42:07;3.83;;;2.58;;
9948;SDS011;5013;51.840;8.276;2023-06-14T10:44:39;3.08;;;2.50;;
9948;SDS011;5013;51.840;8.276;2023-06-14T10:47:24;2.30;;;2.17;;
9948;SDS011;5013;51.840;8.276;2023-06-14T10:49:51;4.30;;;2.28;;
9948;SDS011;5013;51.840;8.276;2023-06-14T10:52:18;2.70;;;2.50;;
9948;SDS011;5013;51.840;8.276;2023-06-14T10:57:31;2.50;;;2.30;;
9948;SDS011;5013;51.840;8.276;2023-06-14T10:59:58;4.20;;;2.38;;
9948;SDS011;5013;51.840;8.276;2023-06-14T11:05:10;4.18;;;2.10;;
9948;SDS011;5013;51.840;8.276;2023-06-14T11:10:44;2.15;;;2.00;;
9948;SDS011;5013;51.840;8.276;2023-06-14T11:13:13;2.50;;;2.40;;
9948;SDS011;5013;51.840;8.276;2023-06-14T11:15:43;3.00;;;2.28;;
9948;SDS011;5013;51.840;8.276;2023-06-14T11:18:11;2.33;;;2.22;;
9948;SDS011;5013;51.840;8.276;2023-06-14T11:20:39;4.43;;;2.10;;
9948;SDS011;5013;51.840;8.276;2023-06-14T11:23:05;2.25;;;2.10;;
9948;SDS011;5013;51.840;8.276;2023-06-14T11:25:31;2.05;;;1.95;;
9948;SDS011;5013;51.840;8.276;2023-06-14T11:27:57;2.35;;;2.00;;
9948;SDS011;5013;51.840;8.276;2023-06-14T11:30:23;2.13;;;2.00;;
9948;SDS011;5013;51.840;8.276;2023-06-14T11:32:50;2.55;;;2.28;;
9948;SDS011;5013;51.840;8.276;2023-06-14T11:35:18;2.78;;;2.42;;
9948;SDS011;5013;51.840;8.276;2023-06-14T11:37:46;3.08;;;1.90;;
9948;SDS011;5013;51.840;8.276;2023-06-14T11:40:13;2.50;;;2.40;;
9948;SDS011;5013;51.840;8.276;2023-06-14T11:42:40;3.30;;;2.70;;
9948;SDS011;5013;51.840;8.276;2023-06-14T11:45:10;4.03;;;2.22;;
9948;SDS011;5013;51.840;8.276;2023-06-14T11:47:37;2.33;;;2.10;;
9948;SDS011;5013;51.840;8.276;2023-06-14T11:50:05;2.20;;;2.20;;
9948;SDS011;5013;51.840;8.276;2023-06-14T11:52:31;4.45;;;3.10;;
9948;SDS011;5013;51.840;8.276;2023-06-14T11:54:57;3.03;;;2.83;;
9948;SDS011;5013;51.840;8.276;2023-06-14T11:57:24;7.65;;;2.50;;
9948;SDS011;5013;51.840;8.276;2023-06-14T11:59:50;6.40;;;2.47;;
9948;SDS011;5013;51.840;8.276;2023-06-14T12:02:16;3.28;;;2.40;;
9948;SDS011;5013;51.840;8.276;2023-06-14T12:04:43;4.50;;;2.20;;
9948;SDS011;5013;51.840;8.276;2023-06-14T12:07:12;2.70;;;2.60;;
9948;SDS011;5013;51.840;8.276;2023-06-14T12:10:27;2.65;;;2.45;;
9948;SDS011;5013;51.840;8.276;2023-06-14T12:12:34;2.47;;;2.35;;
9948;SDS011;5013;51.840;8.276;2023-06-14T12:15:02;2.92;;;2.72;;
9948;SDS011;5013;51.840;8.276;2023-06-14T12:17:31;2.72;;;2.53;;
9948;SDS011;5013;51.840;8.276;2023-06-14T12:19:58;2.78;;;2.30;;
9948;SDS011;5013;51.840;8.276;2023-06-14T12:22:23;2.80;;;2.58;;
9948;SDS011;5013;51.840;8.276;2023-06-14T12:24:49;2.40;;;2.20;;
9948;SDS011;5013;51.840;8.276;2023-06-14T12:27:15;4.22;;;2.50;;
9948;SDS011;5013;51.840;8.276;2023-06-14T12:29:43;4.15;;;2.60;;
9948;SDS011;5013;51.840;8.276;2023-06-14T12:32:09;2.88;;;2.42;;
9948;SDS011;5013;51.840;8.276;2023-06-14T12:34:35;2.40;;;2.20;;
9948;SDS011;5013;51.840;8.276;2023-06-14T12:37:01;10.23;;;6.20;;
9948;SDS011;5013;51.840;8.276;2023-06-14T12:39:29;8.82;;;2.70;;
9948;SDS011;5013;51.840;8.276;2023-06-14T12:41:56;9.60;;;3.42;;
9948;SDS011;5013;51.840;8.276;2023-06-14T12:44:22;4.88;;;2.40;;
9948;SDS011;5013;51.840;8.276;2023-06-14T12:46:48;2.60;;;2.40;;
9948;SDS011;5013;51.840;8.276;2023-06-14T12:49:16;2.60;;;2.40;;
9948;SDS011;5013;51.840;8.276;2023-06-14T12:51:42;3.42;;;2.20;;
9948;SDS011;5013;51.840;8.276;2023-06-14T12:54:07;2.50;;;2.40;;
9948;SDS011;5013;51.840;8.276;2023-06-14T12:56:33;3.28;;;2.50;;
9948;SDS011;5013;51.840;8.276;2023-06-14T12:58:59;2.38;;;2.28;;
9948;SDS011;5013;51.840;8.276;2023-06-14T13:01:25;2.38;;;2.00;;
9948;SDS011;5013;51.840;8.276;2023-06-14T13:03:51;2.55;;;2.28;;
9948;SDS011;5013;51.840;8.276;2023-06-14T13:06:20;2.67;;;2.10;;
9948;SDS011;5013;51.840;8.276;2023-06-14T13:08:47;2.28;;;2.17;;
9948;SDS011;5013;51.840;8.276;2023-06-14T13:11:13;2.08;;;1.98;;
9948;SDS011;5013;51.840;8.276;2023-06-14T13:13:39;2.45;;;2.22;;
9948;SDS011;5013;51.840;8.276;2023-06-14T13:16:05;3.22;;;2.28;;
9948;SDS011;5013;51.840;8.276;2023-06-14T13:18:30;2.42;;;2.00;;
9948;SDS011;5013;51.840;8.276;2023-06-14T13:20:56;3.05;;;2.10;;
9948;SDS011;5013;51.840;8.276;2023-06-14T13:23:21;2.67;;;1.88;;
9948;SDS011;5013;51.840;8.276;2023-06-14T13:25:47;3.15;;;2.10;;
9948;SDS011;5013;51.840;8.276;2023-06-14T13:28:15;2.30;;;2.20;;
9948;SDS011;5013;51.840;8.276;2023-06-14T13:30:40;4.95;;;2.50;;
9948;SDS011;5013;51.840;8.276;2023-06-14T13:33:06;2.42;;;2.20;;
9948;SDS011;5013;51.840;8.276;2023-06-14T13:35:32;2.20;;;2.10;;
9948;SDS011;5013;51.840;8.276;2023-06-14T13:37:57;2.97;;;2.40;;
9948;SDS011;5013;51.840;8.276;2023-06-14T13:40:23;3.92;;;2.30;;
9948;SDS011;5013;51.840;8.276;2023-06-14T13:42:49;2.88;;;2.05;;
9948;SDS011;5013;51.840;8.276;2023-06-14T13:45:14;2.83;;;2.20;;
9948;SDS011;5013;51.840;8.276;2023-06-14T13:47:40;2.50;;;2.40;;
9948;SDS011;5013;51.840;8.276;2023-06-14T13:50:06;4.63;;;2.50;;
9948;SDS011;5013;51.840;8.276;2023-06-14T13:52:32;2.35;;;2.10;;
9948;SDS011;5013;51.840;8.276;2023-06-14T13:54:57;2.35;;;2.25;;
9948;SDS011;5013;51.840;8.276;2023-06-14T13:57:23;2.67;;;2.50;;
9948;SDS011;5013;51.840;8.276;2023-06-14T13:59:48;2.60;;;2.40;;
9948;SDS011;5013;51.840;8.276;2023-06-14T14:02:14;3.88;;;2.20;;
9948;SDS011;5013;51.840;8.276;2023-06-14T14:04:40;3.83;;;2.58;;
9948;SDS011;5013;51.840;8.276;2023-06-14T14:07:07;2.28;;;2.17;;
9948;SDS011;5013;51.840;8.276;2023-06-14T14:09:33;4.15;;;2.40;;
9948;SDS011;5013;51.840;8.276;2023-06-14T14:11:59;2.28;;;2.17;;
9948;SDS011;5013;51.840;8.276;2023-06-14T14:14:25;5.63;;;2.28;;
9948;SDS011;5013;51.840;8.276;2023-06-14T14:16:52;2.80;;;2.10;;
9948;SDS011;5013;51.840;8.276;2023-06-14T14:19:20;3.20;;;2.00;;
9948;SDS011;5013;51.840;8.276;2023-06-14T14:21:46;2.40;;;2.13;;
9948;SDS011;5013;51.840;8.276;2023-06-14T14:24:12;4.10;;;2.08;;
9948;SDS011;5013;51.840;8.276;2023-06-14T14:26:38;2.00;;;1.90;;
9948;SDS011;5013;51.840;8.276;2023-06-14T14:29:04;2.97;;;1.70;;
9948;SDS011;5013;51.840;8.276;2023-06-14T14:31:29;5.28;;;2.00;;
9948;SDS011;5013;51.840;8.276;2023-06-14T14:33:55;5.45;;;1.80;;
9948;SDS011;5013;51.840;8.276;2023-06-14T14:36:21;2.15;;;2.03;;
9948;SDS011;5013;51.840;8.276;2023-06-14T14:38:46;2.30;;;2.08;;
9948;SDS011;5013;51.840;8.276;2023-06-14T14:41:13;3.13;;;2.10;;
9948;SDS011;5013;51.840;8.276;2023-06-14T14:43:38;3.15;;;2.00;;
9948;SDS011;5013;51.840;8.276;2023-06-14T14:46:04;2.20;;;2.00;;
9948;SDS011;5013;51.840;8.276;2023-06-14T14:48:30;2.42;;;2.05;;
9948;SDS011;5013;51.840;8.276;2023-06-14T14:50:56;2.92;;;2.42;;
9948;SDS011;5013;51.840;8.276;2023-06-14T14:53:21;2.70;;;2.10;;
9948;SDS011;5013;51.840;8.276;2023-06-14T14:55:47;2.20;;;2.10;;
9948;SDS011;5013;51.840;8.276;2023-06-14T14:58:13;2.55;;;1.80;;
9948;SDS011;5013;51.840;8.276;2023-06-14T15:00:42;3.75;;;1.92;;
9948;SDS011;5013;51.840;8.276;2023-06-14T15:03:11;2.10;;;2.00;;
9948;SDS011;5013;51.840;8.276;2023-06-14T15:05:37;11.82;;;2.90;;
9948;SDS011;5013;51.840;8.276;2023-06-14T15:08:03;2.40;;;2.20;;
9948;SDS011;5013;51.840;8.276;2023-06-14T15:10:30;1.90;;;1.77;;
9948;SDS011;5013;51.840;8.276;2023-06-14T15:12:56;1.73;;;1.73;;
9948;SDS011;5013;51.840;8.276;2023-06-14T15:15:22;3.10;;;1.90;;
9948;SDS011;5013;51.840;8.276;2023-06-14T15:17:48;2.72;;;1.90;;
9948;SDS011;5013;51.840;8.276;2023-06-14T15:20:13;3.58;;;1.70;;
9948;SDS011;5013;51.840;8.276;2023-06-14T15:22:39;1.77;;;1.73;;
9948;SDS011;5013;51.840;8.276;2023-06-14T15:25:06;2.10;;;1.95;;
9948;SDS011;5013;51.840;8.276;2023-06-14T15:27:31;3.70;;;2.00;;
9948;SDS011;5013;51.840;8.276;2023-06-14T15:29:57;1.90;;;1.70;;